createdAt,value
2019-05-30T00:00:53.894Z,19.54
2019-05-30T00:03:25.481Z,19.47
2019-05-30T00:05:58.324Z,19.46
2019-05-30T00:08:30.057Z,19.44
2019-05-30T00:11:02.791Z,19.40
2019-05-30T00:13:34.449Z,19.31
2019-05-30T00:16:06.223Z,19.27
2019-05-30T00:18:38.007Z,19.32
2019-05-30T00:21:09.658Z,19.23
2019-05-30T00:23:41.351Z,19.18
2019-05-30T00:26:16.410Z,19.09
2019-05-30T00:28:47.868Z,19.10
2019-05-30T00:31:19.629Z,19.09
2019-05-30T00:33:51.424Z,19.04
2019-05-30T00:36:23.302Z,19.09
2019-05-30T00:38:55.625Z,19.07
2019-05-30T00:41:27.471Z,19.13
2019-05-30T00:43:59.930Z,19.14
2019-05-30T00:46:31.737Z,19.09
2019-05-30T00:49:04.505Z,19.02
2019-05-30T00:51:36.114Z,18.98
2019-05-30T00:54:07.970Z,18.99
2019-05-30T00:56:39.752Z,19.03
2019-05-30T00:59:11.541Z,18.97
2019-05-30T01:01:43.300Z,18.98
2019-05-30T01:04:14.995Z,18.99
2019-05-30T01:06:46.666Z,19.03
2019-05-30T01:09:18.426Z,18.98
2019-05-30T01:11:50.223Z,18.98
2019-05-30T01:14:21.999Z,19.03
2019-05-30T01:16:53.774Z,19.10
2019-05-30T01:19:25.657Z,19.15
2019-05-30T01:21:57.412Z,19.07
2019-05-30T01:24:29.289Z,18.87
2019-05-30T01:27:01.370Z,18.79
2019-05-30T01:29:33.270Z,18.82
2019-05-30T01:32:07.616Z,18.84
2019-05-30T01:34:39.361Z,18.95
2019-05-30T01:37:11.063Z,19.01
2019-05-30T01:39:42.729Z,19.02
2019-05-30T01:42:14.503Z,18.94
2019-05-30T01:44:46.284Z,18.94
2019-05-30T01:47:18.144Z,18.91
2019-05-30T01:49:49.921Z,19.02
2019-05-30T01:52:22.020Z,18.86
2019-05-30T01:54:53.797Z,18.89
2019-05-30T01:57:25.572Z,18.75
2019-05-30T01:59:58.616Z,18.82
2019-05-30T02:02:30.251Z,18.81
2019-05-30T02:05:03.022Z,18.86
2019-05-30T02:07:34.911Z,18.95
2019-05-30T02:10:07.440Z,18.93
2019-05-30T02:12:38.906Z,18.95
2019-05-30T02:15:10.957Z,19.03
2019-05-30T02:17:42.529Z,19.04
2019-05-30T02:20:15.361Z,18.93
2019-05-30T02:22:46.800Z,18.94
2019-05-30T02:25:19.127Z,18.94
2019-05-30T02:27:50.574Z,19.06
2019-05-30T02:30:22.537Z,19.12
2019-05-30T02:32:54.519Z,18.99
2019-05-30T02:35:26.524Z,19.11
2019-05-30T02:37:58.389Z,19.06
2019-05-30T02:40:31.199Z,19.04
2019-05-30T02:43:03.690Z,18.94
2019-05-30T02:45:35.893Z,19.06
2019-05-30T02:48:09.700Z,19.19
2019-05-30T02:50:41.374Z,19.22
2019-05-30T02:53:14.177Z,19.65
2019-05-30T02:55:45.931Z,19.75
2019-05-30T02:58:17.708Z,19.92
2019-05-30T03:00:49.413Z,20.17
2019-05-30T03:03:21.181Z,20.37
2019-05-30T03:05:52.938Z,20.32
2019-05-30T03:08:24.933Z,20.19
2019-05-30T03:10:56.615Z,20.41
2019-05-30T03:13:28.589Z,20.61
2019-05-30T03:16:01.949Z,20.94
2019-05-30T03:18:33.258Z,21.50
2019-05-30T03:21:06.397Z,21.97
2019-05-30T03:23:38.725Z,21.88
2019-05-30T03:26:12.988Z,22.44
2019-05-30T03:28:43.967Z,22.74
2019-05-30T03:31:27.669Z,22.53
2019-05-30T03:33:51.522Z,22.73
2019-05-30T03:36:30.107Z,23.25
2019-05-30T03:38:56.891Z,22.68
2019-05-30T03:41:28.875Z,22.74
2019-05-30T03:44:00.951Z,22.38
2019-05-30T03:46:35.269Z,21.65
2019-05-30T03:49:10.742Z,21.36
2019-05-30T03:51:45.923Z,21.62
2019-05-30T03:54:18.999Z,21.50
2019-05-30T03:57:09.161Z,21.60
2019-05-30T03:59:47.818Z,21.69
2019-05-30T04:02:22.357Z,21.97
2019-05-30T04:05:03.278Z,22.49
2019-05-30T04:07:37.980Z,22.48
2019-05-30T04:10:13.411Z,22.53
2019-05-30T04:12:56.899Z,22.45
2019-05-30T04:15:36.137Z,22.51
2019-05-30T04:18:09.444Z,22.57
2019-05-30T04:20:40.980Z,22.88
2019-05-30T04:23:14.649Z,22.99
2019-05-30T04:25:46.172Z,23.15
2019-05-30T04:28:18.685Z,23.34
2019-05-30T04:30:50.581Z,23.43
2019-05-30T04:33:32.599Z,23.54
2019-05-30T04:35:55.579Z,23.90
2019-05-30T04:38:27.414Z,24.08
2019-05-30T04:40:59.194Z,24.27
2019-05-30T04:43:30.981Z,24.46
2019-05-30T04:46:02.837Z,24.38
2019-05-30T04:48:34.644Z,24.23
2019-05-30T04:51:06.409Z,24.48
2019-05-30T04:53:38.186Z,24.84
2019-05-30T04:56:10.353Z,24.47
2019-05-30T04:58:42.983Z,24.94
2019-05-30T05:01:15.538Z,24.94
2019-05-30T05:03:47.422Z,25.16
2019-05-30T05:06:19.880Z,25.36
2019-05-30T05:08:51.708Z,25.18
2019-05-30T05:11:25.390Z,25.28
2019-05-30T05:13:56.697Z,25.28
2019-05-30T05:16:35.411Z,25.27
2019-05-30T05:19:01.584Z,25.36
2019-05-30T05:21:33.353Z,25.57
2019-05-30T05:24:05.027Z,25.65
2019-05-30T05:26:36.789Z,25.94
2019-05-30T05:29:08.586Z,25.88
2019-05-30T05:31:40.235Z,26.05
2019-05-30T05:34:12.031Z,25.90
2019-05-30T05:36:43.925Z,25.87
2019-05-30T05:39:16.151Z,26.23
2019-05-30T05:41:48.060Z,26.16
2019-05-30T05:44:20.367Z,26.29
2019-05-30T05:46:52.141Z,26.38
2019-05-30T05:49:24.927Z,26.07
2019-05-30T05:51:56.599Z,26.23
2019-05-30T05:54:29.247Z,26.50
2019-05-30T05:57:02.121Z,26.27
2019-05-30T05:59:33.879Z,26.48
2019-05-30T06:02:05.769Z,26.66
2019-05-30T06:04:37.538Z,27.06
2019-05-30T06:07:09.213Z,27.23
2019-05-30T06:09:40.990Z,27.23
2019-05-30T06:12:12.747Z,27.40
2019-05-30T06:14:44.439Z,27.55
2019-05-30T06:17:16.966Z,27.44
2019-05-30T06:19:48.694Z,27.14
2019-05-30T06:22:21.441Z,27.41
2019-05-30T06:24:52.963Z,27.54
2019-05-30T06:27:26.041Z,27.11
2019-05-30T06:29:57.644Z,26.98
2019-05-30T06:32:29.436Z,27.00
2019-05-30T06:35:01.194Z,27.50
2019-05-30T06:37:32.990Z,27.81
2019-05-30T06:40:06.504Z,28.16
2019-05-30T06:42:37.973Z,28.16
2019-05-30T06:45:10.624Z,27.78
2019-05-30T06:47:42.140Z,28.34
2019-05-30T06:50:14.165Z,28.43
2019-05-30T06:52:45.902Z,28.24
2019-05-30T06:55:17.702Z,28.68
2019-05-30T06:57:49.860Z,28.87
2019-05-30T07:00:22.205Z,28.97
2019-05-30T07:02:54.181Z,28.93
2019-05-30T07:05:27.870Z,28.94
2019-05-30T07:07:59.010Z,29.07
2019-05-30T07:10:31.138Z,29.09
2019-05-30T07:13:02.975Z,28.83
2019-05-30T07:15:37.348Z,29.46
2019-05-30T07:18:09.391Z,29.63
2019-05-30T07:20:41.151Z,29.34
2019-05-30T07:23:12.930Z,29.73
2019-05-30T07:25:44.722Z,29.45
2019-05-30T07:28:23.705Z,29.54
2019-05-30T07:30:56.802Z,29.37
2019-05-30T07:33:28.525Z,29.76
2019-05-30T07:36:00.460Z,29.50
2019-05-30T07:38:32.643Z,29.53
2019-05-30T07:41:04.772Z,29.60
2019-05-30T07:43:36.146Z,29.50
2019-05-30T07:46:08.003Z,30.06
2019-05-30T07:48:41.072Z,30.08
2019-05-30T07:51:15.073Z,30.00
2019-05-30T07:53:46.746Z,30.00
2019-05-30T07:56:18.519Z,30.19
2019-05-30T07:58:51.303Z,30.12
2019-05-30T08:01:23.076Z,30.09
2019-05-30T08:03:54.965Z,29.91
2019-05-30T08:06:27.470Z,29.99
2019-05-30T08:08:59.348Z,30.46
2019-05-30T08:11:31.110Z,30.65
2019-05-30T08:14:02.879Z,30.89
2019-05-30T08:16:35.493Z,31.01
2019-05-30T08:19:07.251Z,30.91
2019-05-30T08:21:38.946Z,30.67
2019-05-30T08:24:10.719Z,31.13
2019-05-30T08:26:42.497Z,31.13
2019-05-30T08:29:14.272Z,31.19
2019-05-30T08:31:46.053Z,31.25
2019-05-30T08:34:17.839Z,30.93
2019-05-30T08:36:49.251Z,31.13
2019-05-30T08:39:20.691Z,31.47
2019-05-30T08:41:52.068Z,31.34
2019-05-30T08:44:23.793Z,31.48
2019-05-30T08:46:55.573Z,31.28
2019-05-30T08:49:27.156Z,31.17
2019-05-30T08:51:58.922Z,31.51
2019-05-30T08:54:30.812Z,31.51
2019-05-30T08:57:02.590Z,31.46
2019-05-30T08:59:34.531Z,31.38
2019-05-30T09:02:06.449Z,31.84
2019-05-30T09:04:38.042Z,31.76
2019-05-30T09:07:10.194Z,31.91
2019-05-30T09:09:42.482Z,31.78
2019-05-30T09:12:13.966Z,31.88
2019-05-30T09:14:46.853Z,32.08
2019-05-30T09:17:18.667Z,31.97
2019-05-30T09:19:50.409Z,32.41
2019-05-30T09:22:22.300Z,32.54
2019-05-30T09:24:54.078Z,32.21
2019-05-30T09:27:25.855Z,32.04
2019-05-30T09:29:57.630Z,31.89
2019-05-30T09:32:29.408Z,31.99
2019-05-30T09:35:01.193Z,32.04
2019-05-30T09:37:32.842Z,32.72
2019-05-30T09:40:07.598Z,32.74
2019-05-30T09:42:40.823Z,32.69
2019-05-30T09:45:15.041Z,33.18
2019-05-30T09:47:47.499Z,33.27
2019-05-30T09:50:20.509Z,32.99
2019-05-30T09:52:52.434Z,32.35
2019-05-30T09:55:25.576Z,32.76
2019-05-30T09:57:56.989Z,32.81
2019-05-30T10:00:30.155Z,32.93
2019-05-30T10:03:01.550Z,33.18
2019-05-30T10:05:33.444Z,33.08
2019-05-30T10:08:05.550Z,33.10
2019-05-30T10:10:36.984Z,33.16
2019-05-30T10:13:08.673Z,33.03
2019-05-30T10:15:40.867Z,32.54
2019-05-30T10:18:12.518Z,32.80
2019-05-30T10:20:44.451Z,32.89
2019-05-30T10:23:17.210Z,32.60
2019-05-30T10:25:49.537Z,32.62
2019-05-30T10:28:21.380Z,32.79
2019-05-30T10:30:57.268Z,32.92
2019-05-30T10:33:26.551Z,32.81
2019-05-30T10:35:58.450Z,33.03
2019-05-30T10:38:30.206Z,33.05
2019-05-30T10:41:01.981Z,33.07
2019-05-30T10:43:33.760Z,33.50
2019-05-30T10:46:05.559Z,33.59
2019-05-30T10:48:37.213Z,33.35
2019-05-30T10:51:09.002Z,33.10
2019-05-30T10:53:40.784Z,32.72
2019-05-30T10:56:13.291Z,32.57
2019-05-30T10:58:46.588Z,31.93
2019-05-30T11:01:18.343Z,32.33
2019-05-30T11:03:50.373Z,32.68
2019-05-30T11:06:34.493Z,32.54
2019-05-30T11:09:06.516Z,32.15
2019-05-30T11:11:37.859Z,32.77
2019-05-30T11:14:09.399Z,31.97
2019-05-30T11:16:41.176Z,31.61
2019-05-30T11:19:12.967Z,31.47
2019-05-30T11:21:44.727Z,31.93
2019-05-30T11:24:16.503Z,32.75
2019-05-30T11:26:50.449Z,33.38
2019-05-30T11:29:21.525Z,33.85
2019-05-30T11:31:54.937Z,33.80
2019-05-30T11:34:26.801Z,33.75
2019-05-30T11:36:59.334Z,33.89
2019-05-30T11:39:31.686Z,33.62
2019-05-30T11:42:03.448Z,33.65
2019-05-30T11:44:35.236Z,33.19
2019-05-30T11:47:07.114Z,32.76
2019-05-30T11:49:38.792Z,32.34
2019-05-30T11:52:10.649Z,32.08
2019-05-30T11:54:42.444Z,31.52
2019-05-30T11:57:14.423Z,31.35
2019-05-30T11:59:46.205Z,31.13
2019-05-30T12:02:18.078Z,31.34
2019-05-30T12:04:50.524Z,31.03
2019-05-30T12:07:35.683Z,30.91
2019-05-30T12:09:56.902Z,30.78
2019-05-30T12:12:28.544Z,30.76
2019-05-30T12:15:01.492Z,30.49
2019-05-30T12:17:33.240Z,30.46
2019-05-30T12:20:06.103Z,30.46
2019-05-30T12:22:37.601Z,30.34
2019-05-30T12:25:09.545Z,30.43
2019-05-30T12:27:41.074Z,30.39
2019-05-30T12:30:13.526Z,30.20
2019-05-30T12:32:45.026Z,30.47
2019-05-30T12:35:17.210Z,30.34
2019-05-30T12:37:54.819Z,30.20
2019-05-30T12:40:22.077Z,29.99
2019-05-30T12:49:27.938Z,29.76
2019-05-30T12:52:00.614Z,29.45
2019-05-30T12:54:32.314Z,29.40
2019-05-30T12:57:04.286Z,29.61
2019-05-30T12:59:35.906Z,30.19
2019-05-30T13:02:07.740Z,30.88
2019-05-30T13:04:40.335Z,31.66
2019-05-30T13:07:11.913Z,32.17
2019-05-30T13:09:43.787Z,32.74
2019-05-30T13:12:15.674Z,31.93
2019-05-30T13:14:47.527Z,31.50
2019-05-30T13:17:20.131Z,31.28
2019-05-30T13:19:51.610Z,31.46
2019-05-30T13:22:25.123Z,31.05
2019-05-30T13:24:57.525Z,30.61
2019-05-30T13:27:29.270Z,30.58
2019-05-30T13:30:02.270Z,30.60
2019-05-30T13:32:35.279Z,30.42
2019-05-30T13:35:08.192Z,30.38
2019-05-30T13:37:40.490Z,30.23
2019-05-30T13:40:24.193Z,30.41
2019-05-30T13:42:46.294Z,30.32
2019-05-30T13:45:18.787Z,30.07
2019-05-30T13:47:50.561Z,29.86
2019-05-30T13:50:22.934Z,29.65
2019-05-30T13:52:54.734Z,29.41
2019-05-30T13:55:28.266Z,29.28
2019-05-30T13:58:00.121Z,29.12
2019-05-30T14:00:31.880Z,28.88
2019-05-30T14:03:04.082Z,28.85
2019-05-30T14:05:35.968Z,28.70
2019-05-30T14:08:10.640Z,28.61
2019-05-30T14:10:41.052Z,28.63
2019-05-30T14:13:12.828Z,28.47
2019-05-30T14:15:44.593Z,28.13
2019-05-30T14:18:19.178Z,28.07
2019-05-30T14:20:51.003Z,27.75
2019-05-30T14:23:22.779Z,27.70
2019-05-30T14:25:54.455Z,27.40
2019-05-30T14:28:26.230Z,27.51
2019-05-30T14:30:58.025Z,27.53
2019-05-30T14:33:29.701Z,27.57
2019-05-30T14:36:04.591Z,27.61
2019-05-30T14:38:34.709Z,27.65
2019-05-30T14:41:06.959Z,27.73
2019-05-30T14:43:38.859Z,27.60
2019-05-30T14:46:10.628Z,27.56
2019-05-30T14:48:42.080Z,27.58
2019-05-30T14:51:13.874Z,27.54
2019-05-30T14:53:45.636Z,27.54
2019-05-30T14:56:17.640Z,27.53
2019-05-30T14:58:49.454Z,27.55
2019-05-30T15:01:21.290Z,27.63
2019-05-30T15:03:52.961Z,27.72
2019-05-30T15:06:24.843Z,27.67
2019-05-30T15:08:56.620Z,27.62
2019-05-30T15:11:28.479Z,27.62
2019-05-30T15:14:00.275Z,27.65
2019-05-30T15:16:32.033Z,27.50
2019-05-30T15:19:04.200Z,27.53
2019-05-30T15:21:36.626Z,27.50
2019-05-30T15:24:09.786Z,27.60
2019-05-30T15:26:41.900Z,27.60
2019-05-30T15:29:14.171Z,27.60
2019-05-30T15:31:45.882Z,27.62
2019-05-30T15:34:17.561Z,27.64
2019-05-30T15:36:49.333Z,27.62
2019-05-30T15:39:32.512Z,27.60
2019-05-30T15:41:54.605Z,27.53
2019-05-30T15:44:26.300Z,27.49
2019-05-30T15:46:58.057Z,27.45
2019-05-30T15:49:29.849Z,27.39
2019-05-30T15:52:01.634Z,27.40
2019-05-30T15:54:33.386Z,27.55
2019-05-30T15:57:05.284Z,27.46
2019-05-30T15:59:37.350Z,27.37
2019-05-30T16:02:09.905Z,27.27
2019-05-30T16:04:41.430Z,27.27
2019-05-30T16:07:15.272Z,27.55
2019-05-30T16:09:47.660Z,28.35
2019-05-30T16:12:19.439Z,29.38
2019-05-30T16:14:51.813Z,29.93
2019-05-30T16:17:23.593Z,29.87
2019-05-30T16:19:56.024Z,28.90
2019-05-30T16:22:28.370Z,28.14
2019-05-30T16:25:00.367Z,27.70
2019-05-30T16:27:32.641Z,27.38
2019-05-30T16:30:09.313Z,26.98
2019-05-30T16:32:41.081Z,26.69
2019-05-30T16:35:14.052Z,26.69
2019-05-30T16:37:45.761Z,26.67
2019-05-30T16:40:18.401Z,26.51
2019-05-30T16:42:50.048Z,26.36
2019-05-30T16:45:24.723Z,26.15
2019-05-30T16:47:55.031Z,26.11
2019-05-30T16:57:20.835Z,25.48
2019-05-30T16:59:52.801Z,25.30
2019-05-30T17:02:24.557Z,25.16
2019-05-30T17:04:56.235Z,25.04
2019-05-30T17:07:28.028Z,24.86
2019-05-30T17:09:59.790Z,24.74
2019-05-30T17:12:31.563Z,24.51
2019-05-30T17:15:05.301Z,24.40
2019-05-30T17:17:36.772Z,24.16
2019-05-30T17:20:09.513Z,23.94
2019-05-30T17:22:41.658Z,23.70
2019-05-30T17:25:13.418Z,23.60
2019-05-30T17:27:44.906Z,23.42
2019-05-30T17:30:17.581Z,23.27
2019-05-30T17:32:49.358Z,23.16
2019-05-30T17:35:22.033Z,23.04
2019-05-30T17:37:53.625Z,22.94
2019-05-30T17:40:41.199Z,22.77
2019-05-30T17:42:59.453Z,22.71
2019-05-30T17:45:31.230Z,22.66
2019-05-30T17:48:16.068Z,22.50
2019-05-30T17:50:36.194Z,22.42
2019-05-30T17:53:07.989Z,22.30
2019-05-30T17:55:39.763Z,22.23
2019-05-30T17:58:11.540Z,22.18
2019-05-30T18:00:43.320Z,22.15
2019-05-30T18:03:15.284Z,22.10
2019-05-30T18:05:47.365Z,22.01
2019-05-30T18:08:19.242Z,21.92
2019-05-30T18:10:54.139Z,21.85
2019-05-30T18:13:25.028Z,21.74
2019-05-30T18:15:56.744Z,21.67
2019-05-30T18:18:29.329Z,21.58
2019-05-30T18:21:00.988Z,21.48
2019-05-30T18:23:32.766Z,21.40
2019-05-30T18:26:04.646Z,21.32
2019-05-30T18:28:36.320Z,21.28
2019-05-30T18:31:08.095Z,21.30
2019-05-30T18:33:40.197Z,21.23
2019-05-30T18:36:11.972Z,21.23
2019-05-30T18:38:43.740Z,21.24
2019-05-30T18:41:16.629Z,21.17
2019-05-30T18:43:48.329Z,21.08
2019-05-30T18:46:20.206Z,21.01
2019-05-30T18:48:51.985Z,20.94
2019-05-30T18:51:24.083Z,20.88
2019-05-30T18:53:55.950Z,20.84
2019-05-30T18:56:28.698Z,20.84
2019-05-30T18:59:00.505Z,20.79
2019-05-30T19:01:33.646Z,20.80
2019-05-30T19:04:08.945Z,20.82
2019-05-30T19:06:40.971Z,20.74
2019-05-30T19:09:12.765Z,20.76
2019-05-30T19:11:44.523Z,20.86
2019-05-30T19:14:16.585Z,20.78
2019-05-30T19:16:51.144Z,20.64
2019-05-30T19:19:25.856Z,20.54
2019-05-30T19:21:57.560Z,20.50
2019-05-30T19:24:30.028Z,20.58
2019-05-30T19:27:07.555Z,20.62
2019-05-30T19:29:39.415Z,20.55
2019-05-30T19:32:11.316Z,20.50
2019-05-30T19:34:43.491Z,20.48
2019-05-30T19:37:15.685Z,20.52
2019-05-30T19:39:47.460Z,20.57
2019-05-30T19:42:19.360Z,20.55
2019-05-30T19:44:51.223Z,20.52
2019-05-30T19:47:25.443Z,20.51
2019-05-30T19:49:56.906Z,20.49
2019-05-30T19:52:30.646Z,20.44
2019-05-30T19:55:02.521Z,20.42
2019-05-30T19:57:35.575Z,20.38
2019-05-30T20:00:09.040Z,20.31
2019-05-30T20:02:40.692Z,20.28
2019-05-30T20:05:14.000Z,20.26
2019-05-30T20:07:45.592Z,20.23
2019-05-30T20:10:20.013Z,20.22
2019-05-30T20:12:51.601Z,20.24
2019-05-30T20:15:24.199Z,20.18
2019-05-30T20:17:56.056Z,20.12
2019-05-30T20:20:28.061Z,20.09
2019-05-30T20:23:00.231Z,20.06
2019-05-30T20:25:32.682Z,20.03
2019-05-30T20:28:04.291Z,20.09
2019-05-30T20:30:37.334Z,20.12
2019-05-30T20:33:10.022Z,20.20
2019-05-30T20:35:43.310Z,20.22
2019-05-30T20:38:15.300Z,20.21
2019-05-30T20:40:47.217Z,20.10
2019-05-30T20:43:18.994Z,20.01
2019-05-30T20:45:50.713Z,19.96
2019-05-30T20:48:22.405Z,19.91
2019-05-30T20:50:54.165Z,19.77
2019-05-30T20:53:25.943Z,19.68
2019-05-30T20:55:57.838Z,19.65
2019-05-30T20:58:29.600Z,19.63
2019-05-30T21:01:01.375Z,19.54
2019-05-30T21:03:33.480Z,19.45
2019-05-30T21:06:05.461Z,19.39
2019-05-30T21:08:39.020Z,19.33
2019-05-30T21:11:11.261Z,19.27
2019-05-30T21:13:44.308Z,19.22
2019-05-30T21:16:18.389Z,19.20
2019-05-30T21:18:52.024Z,19.17
2019-05-30T21:21:23.787Z,19.09
2019-05-30T21:23:55.650Z,19.00
2019-05-30T21:26:27.631Z,18.93
2019-05-30T21:28:59.604Z,18.93
2019-05-30T21:31:31.490Z,18.91
2019-05-30T21:34:03.484Z,18.93
2019-05-30T21:36:35.469Z,18.96
2019-05-30T21:39:08.270Z,18.94
2019-05-30T21:41:40.162Z,18.95
2019-05-30T21:44:11.922Z,18.88
2019-05-30T21:46:44.777Z,18.79
2019-05-30T21:49:16.386Z,18.73
2019-05-30T21:51:48.061Z,18.65
2019-05-30T21:54:19.828Z,18.62
2019-05-30T21:56:51.608Z,18.57
2019-05-30T21:59:23.427Z,18.62
2019-05-30T22:01:57.275Z,18.58
2019-05-30T22:04:28.695Z,18.59
2019-05-30T22:07:00.674Z,18.64
2019-05-30T22:09:32.537Z,18.70
2019-05-30T22:12:04.642Z,18.65
2019-05-30T22:14:36.109Z,18.62
2019-05-30T22:17:07.968Z,18.57
2019-05-30T22:19:39.761Z,18.63
2019-05-30T22:22:11.639Z,18.61
2019-05-30T22:24:44.199Z,18.57
2019-05-30T22:27:15.808Z,18.62
2019-05-30T22:29:48.504Z,18.59
2019-05-30T22:32:20.382Z,18.63
2019-05-30T22:34:52.969Z,18.66
2019-05-30T22:37:24.856Z,18.66
2019-05-30T22:39:56.634Z,18.68
2019-05-30T22:42:28.391Z,18.65
2019-05-30T22:45:00.187Z,18.64
2019-05-30T22:47:32.066Z,18.65
2019-05-30T22:50:05.056Z,18.63
2019-05-30T22:52:36.542Z,18.60
2019-05-30T22:55:08.317Z,18.68
2019-05-30T22:57:40.075Z,18.59
2019-05-30T23:00:12.075Z,18.56
2019-05-30T23:02:43.705Z,18.57
2019-05-30T23:05:15.506Z,18.63
2019-05-30T23:07:47.474Z,18.60
2019-05-30T23:10:19.288Z,18.57
2019-05-30T23:12:51.894Z,18.51
2019-05-30T23:15:23.759Z,18.42
2019-05-30T23:17:56.732Z,18.27
2019-05-30T23:20:28.319Z,18.10
2019-05-30T23:23:00.212Z,18.05
2019-05-30T23:25:32.091Z,17.96
2019-05-30T23:28:03.847Z,17.86
2019-05-30T23:30:35.544Z,17.82
2019-05-30T23:33:07.424Z,17.83
2019-05-30T23:35:39.097Z,17.79
2019-05-30T23:38:10.873Z,17.69
2019-05-30T23:40:42.654Z,17.64
2019-05-30T23:43:14.450Z,17.64
2019-05-30T23:45:46.201Z,17.65
2019-05-30T23:48:17.980Z,17.60
2019-05-30T23:50:49.823Z,17.58
2019-05-30T23:53:21.634Z,17.63
2019-05-30T23:55:54.277Z,17.66
2019-05-30T23:58:25.935Z,17.66
